createdAt,value
2019-03-20T00:01:09.793Z,102646.05
2019-03-20T00:02:17.179Z,102645.68
2019-03-20T00:03:23.945Z,102641.41
2019-03-20T00:04:31.464Z,102640.64
2019-03-20T00:05:38.480Z,102639.28
2019-03-20T00:06:45.349Z,102647.37
2019-03-20T00:07:52.468Z,102647.41
2019-03-20T00:08:59.243Z,102645.62
2019-03-20T00:10:07.173Z,102646.81
2019-03-20T00:11:13.926Z,102650.14
2019-03-20T00:12:20.710Z,102644.21
2019-03-20T00:13:27.485Z,102641.14
2019-03-20T00:14:34.367Z,102638.42
2019-03-20T00:15:41.073Z,102642.28
2019-03-20T00:16:47.805Z,102643.45
2019-03-20T00:17:55.193Z,102637.80
2019-03-20T00:19:02.021Z,102640.34
2019-03-20T00:20:10.300Z,102637.27
2019-03-20T00:21:17.456Z,102633.83
2019-03-20T00:22:24.203Z,102636.00
2019-03-20T00:23:31.115Z,102633.46
2019-03-20T00:24:37.904Z,102641.52
2019-03-20T00:25:44.768Z,102637.17
2019-03-20T00:26:51.833Z,102633.31
2019-03-20T00:27:58.602Z,102631.98
2019-03-20T00:29:05.660Z,102635.80
2019-03-20T00:30:14.263Z,102637.91
2019-03-20T00:31:21.168Z,102639.03
2019-03-20T00:32:28.033Z,102633.70
2019-03-20T00:33:35.608Z,102641.79
2019-03-20T00:34:42.359Z,102639.69
2019-03-20T00:35:49.093Z,102640.31
2019-03-20T00:36:56.311Z,102634.80
2019-03-20T00:38:03.471Z,102639.03
2019-03-20T00:39:10.689Z,102640.63
2019-03-20T00:40:17.442Z,102635.17
2019-03-20T00:41:24.178Z,102643.96
2019-03-20T00:42:30.985Z,102642.53
2019-03-20T00:43:37.717Z,102650.48
2019-03-20T00:44:45.642Z,102646.66
2019-03-20T00:45:52.377Z,102650.53
2019-03-20T00:46:59.793Z,102649.27
2019-03-20T00:48:06.885Z,102655.66
2019-03-20T00:49:14.094Z,102659.05
2019-03-20T00:50:20.824Z,102659.47
2019-03-20T00:51:28.212Z,102658.89
2019-03-20T00:52:34.984Z,102660.52
2019-03-20T00:53:42.100Z,102658.73
2019-03-20T00:54:48.869Z,102658.67
2019-03-20T00:55:56.241Z,102662.55
2019-03-20T00:57:02.989Z,102654.34
2019-03-20T00:58:09.784Z,102652.64
2019-03-20T00:59:16.487Z,102653.81
2019-03-20T01:00:24.311Z,102653.37
2019-03-20T01:01:31.858Z,102654.71
2019-03-20T01:02:38.606Z,102650.37
2019-03-20T01:03:45.664Z,102654.64
2019-03-20T01:04:52.733Z,102653.33
2019-03-20T01:05:59.781Z,102655.45
2019-03-20T01:07:06.917Z,102656.30
2019-03-20T01:08:13.690Z,102653.39
2019-03-20T01:09:20.789Z,102649.59
2019-03-20T01:10:27.622Z,102653.01
2019-03-20T01:11:34.346Z,102651.27
2019-03-20T01:12:41.139Z,102652.12
2019-03-20T01:13:49.274Z,102655.18
2019-03-20T01:14:56.677Z,102652.17
2019-03-20T01:16:04.154Z,102645.02
2019-03-20T01:17:11.819Z,102645.08
2019-03-20T01:18:18.764Z,102648.90
2019-03-20T01:19:25.783Z,102654.86
2019-03-20T01:20:32.565Z,102656.13
2019-03-20T01:21:39.259Z,102651.44
2019-03-20T01:22:46.537Z,102651.80
2019-03-20T01:23:53.577Z,102650.52
2019-03-20T01:25:00.369Z,102655.55
2019-03-20T01:26:07.112Z,102652.59
2019-03-20T01:27:14.821Z,102652.59
2019-03-20T01:28:22.576Z,102649.59
2019-03-20T01:29:29.412Z,102648.30
2019-03-20T01:30:39.082Z,102653.01
2019-03-20T01:31:45.808Z,102656.40
2019-03-20T01:32:52.532Z,102648.78
2019-03-20T01:33:59.666Z,102647.56
2019-03-20T01:35:07.151Z,102645.51
2019-03-20T01:36:13.877Z,102646.83
2019-03-20T01:37:20.659Z,102648.09
2019-03-20T01:38:27.464Z,102642.60
2019-03-20T01:39:34.191Z,102641.80
2019-03-20T01:40:41.285Z,102643.82
2019-03-20T01:41:48.005Z,102645.51
2019-03-20T01:42:55.251Z,102643.82
2019-03-20T01:44:02.294Z,102646.02
2019-03-20T01:45:10.672Z,102645.19
2019-03-20T01:46:17.758Z,102643.12
2019-03-20T01:47:24.817Z,102644.34
2019-03-20T01:48:31.611Z,102643.82
2019-03-20T01:49:38.370Z,102642.60
2019-03-20T01:50:45.143Z,102643.39
2019-03-20T01:51:52.165Z,102638.84
2019-03-20T01:52:59.314Z,102642.60
2019-03-20T01:54:06.104Z,102640.11
2019-03-20T01:55:13.054Z,102645.23
2019-03-20T01:56:20.172Z,102646.09
2019-03-20T01:57:26.979Z,102642.33
2019-03-20T01:58:34.250Z,102649.53
2019-03-20T01:59:40.980Z,102643.17
2019-03-20T02:00:48.076Z,102641.75
2019-03-20T02:01:54.838Z,102640.80
2019-03-20T02:03:02.219Z,102640.70
2019-03-20T02:04:08.956Z,102641.53
2019-03-20T02:05:16.181Z,102641.22
2019-03-20T02:06:22.884Z,102640.38
2019-03-20T02:07:29.931Z,102638.73
2019-03-20T02:08:37.033Z,102641.28
2019-03-20T02:09:43.814Z,102629.91
2019-03-20T02:10:50.900Z,102635.89
2019-03-20T02:11:58.357Z,102639.36
2019-03-20T02:13:05.529Z,102636.36
2019-03-20T02:14:12.265Z,102640.16
2019-03-20T02:15:19.064Z,102644.82
2019-03-20T02:16:25.837Z,102646.05
2019-03-20T02:17:32.628Z,102646.09
2019-03-20T02:18:39.718Z,102645.70
2019-03-20T02:19:46.429Z,102642.17
2019-03-20T02:20:53.636Z,102642.22
2019-03-20T02:22:00.491Z,102640.90
2019-03-20T02:23:07.206Z,102637.52
2019-03-20T02:24:14.156Z,102639.68
2019-03-20T02:25:20.917Z,102643.07
2019-03-20T02:26:28.005Z,102648.09
2019-03-20T02:27:34.775Z,102646.36
2019-03-20T02:28:41.576Z,102646.41
2019-03-20T02:29:49.028Z,102646.30
2019-03-20T02:30:56.123Z,102640.95
2019-03-20T02:32:03.312Z,102640.70
2019-03-20T02:33:10.448Z,102635.13
2019-03-20T02:34:17.583Z,102634.18
2019-03-20T02:35:24.733Z,102628.25
2019-03-20T02:36:31.533Z,102632.50
2019-03-20T02:37:38.602Z,102630.79
2019-03-20T02:38:45.661Z,102634.98
2019-03-20T02:39:52.469Z,102635.87
2019-03-20T02:40:59.194Z,102641.90
2019-03-20T02:42:06.136Z,102644.55
2019-03-20T02:43:12.929Z,102644.55
2019-03-20T02:44:20.077Z,102647.61
2019-03-20T02:45:26.825Z,102644.70
2019-03-20T02:46:33.976Z,102647.24
2019-03-20T02:47:40.890Z,102640.00
2019-03-20T02:48:47.776Z,102644.66
2019-03-20T02:49:54.513Z,102643.34
2019-03-20T02:51:01.334Z,102647.68
2019-03-20T02:52:08.077Z,102648.56
2019-03-20T02:53:14.859Z,102649.41
2019-03-20T02:54:21.951Z,102647.78
2019-03-20T02:55:28.697Z,102645.66
2019-03-20T02:56:35.651Z,102646.02
2019-03-20T02:57:42.833Z,102643.80
2019-03-20T02:58:49.625Z,102643.66
2019-03-20T02:59:56.367Z,102643.66
2019-03-20T03:01:03.076Z,102640.36
2019-03-20T03:02:14.215Z,102644.55
2019-03-20T03:03:21.273Z,102642.80
2019-03-20T03:04:28.360Z,102640.70
2019-03-20T03:05:35.140Z,102646.19
2019-03-20T03:06:42.234Z,102643.70
2019-03-20T03:07:49.138Z,102647.51
2019-03-20T03:08:55.880Z,102644.50
2019-03-20T03:10:03.101Z,102649.27
2019-03-20T03:11:09.892Z,102644.66
2019-03-20T03:12:17.047Z,102642.06
2019-03-20T03:13:23.832Z,102638.16
2019-03-20T03:14:30.572Z,102637.83
2019-03-20T03:15:37.737Z,102636.89
2019-03-20T03:16:44.465Z,102632.55
2019-03-20T03:17:51.182Z,102627.04
2019-03-20T03:18:58.212Z,102627.84
2019-03-20T03:20:06.043Z,102619.58
2019-03-20T03:21:13.093Z,102617.46
2019-03-20T03:22:19.899Z,102620.44
2019-03-20T03:23:26.999Z,102614.09
2019-03-20T03:24:33.832Z,102614.52
2019-03-20T03:25:40.623Z,102612.92
2019-03-20T03:26:47.365Z,102610.08
2019-03-20T03:27:54.459Z,102616.56
2019-03-20T03:29:01.203Z,102614.62
2019-03-20T03:30:08.987Z,102617.27
2019-03-20T03:31:15.939Z,102616.91
2019-03-20T03:32:22.700Z,102615.56
2019-03-20T03:33:29.415Z,102611.66
2019-03-20T03:34:36.160Z,102617.27
2019-03-20T03:35:43.261Z,102615.88
2019-03-20T03:36:50.647Z,102612.71
2019-03-20T03:37:57.774Z,102619.01
2019-03-20T03:39:06.581Z,102613.93
2019-03-20T03:40:13.766Z,102613.56
2019-03-20T03:41:20.592Z,102613.61
2019-03-20T03:42:28.071Z,102608.70
2019-03-20T03:43:35.136Z,102604.58
2019-03-20T03:44:41.882Z,102608.58
2019-03-20T03:45:48.599Z,102606.53
2019-03-20T03:46:55.572Z,102605.30
2019-03-20T03:48:02.320Z,102609.97
2019-03-20T03:49:09.163Z,102601.02
2019-03-20T03:50:15.914Z,102609.90
2019-03-20T03:51:22.667Z,102603.83
2019-03-20T03:52:29.520Z,102609.22
2019-03-20T03:53:36.595Z,102610.02
2019-03-20T03:54:43.596Z,102607.85
2019-03-20T03:55:50.801Z,102604.52
2019-03-20T03:56:57.664Z,102601.66
2019-03-20T03:58:04.904Z,102604.20
2019-03-20T03:59:12.056Z,102605.53
2019-03-20T04:00:19.119Z,102602.45
2019-03-20T04:01:25.882Z,102606.27
2019-03-20T04:02:32.989Z,102615.94
2019-03-20T04:03:40.605Z,102612.08
2019-03-20T04:04:47.804Z,102615.00
2019-03-20T04:05:54.598Z,102612.56
2019-03-20T04:07:01.444Z,102614.09
2019-03-20T04:08:08.261Z,102613.56
2019-03-20T04:09:15.336Z,102619.38
2019-03-20T04:10:22.078Z,102617.22
2019-03-20T04:11:28.854Z,102613.03
2019-03-20T04:12:35.617Z,102610.17
2019-03-20T04:13:42.675Z,102617.00
2019-03-20T04:14:49.457Z,102612.83
2019-03-20T04:15:56.202Z,102618.64
2019-03-20T04:17:02.932Z,102622.86
2019-03-20T04:18:10.369Z,102618.53
2019-03-20T04:19:17.591Z,102623.23
2019-03-20T04:20:24.302Z,102625.88
2019-03-20T04:21:31.099Z,102628.06
2019-03-20T04:22:38.276Z,102625.13
2019-03-20T04:23:45.541Z,102624.72
2019-03-20T04:24:52.341Z,102623.03
2019-03-20T04:25:59.046Z,102620.08
2019-03-20T04:27:05.793Z,102629.42
2019-03-20T04:28:12.872Z,102632.75
2019-03-20T04:29:19.671Z,102633.08
2019-03-20T04:30:26.420Z,102628.84
2019-03-20T04:31:33.203Z,102631.02
2019-03-20T04:32:40.369Z,102630.16
2019-03-20T04:33:47.308Z,102631.75
2019-03-20T04:34:54.024Z,102634.08
2019-03-20T04:36:00.772Z,102635.71
2019-03-20T04:37:07.532Z,102629.37
2019-03-20T04:38:14.371Z,102634.44
2019-03-20T04:39:21.992Z,102635.28
2019-03-20T04:40:29.341Z,102635.23
2019-03-20T04:41:36.469Z,102635.64
2019-03-20T04:42:43.296Z,102639.03
2019-03-20T04:43:51.658Z,102642.00
2019-03-20T04:44:59.154Z,102636.81
2019-03-20T04:46:06.214Z,102640.20
2019-03-20T04:47:13.370Z,102630.41
2019-03-20T04:48:20.474Z,102629.14
2019-03-20T04:49:27.884Z,102631.73
2019-03-20T04:50:34.860Z,102633.54
2019-03-20T04:51:41.666Z,102632.74
2019-03-20T04:52:48.426Z,102629.84
2019-03-20T04:53:55.182Z,102630.69
2019-03-20T04:55:02.006Z,102634.59
2019-03-20T04:56:09.096Z,102634.18
2019-03-20T04:57:16.201Z,102629.74
2019-03-20T04:58:22.969Z,102630.64
2019-03-20T04:59:29.732Z,102642.59
2019-03-20T05:00:36.921Z,102638.36
2019-03-20T05:01:44.003Z,102635.36
2019-03-20T05:02:51.180Z,102638.31
2019-03-20T05:03:58.093Z,102645.66
2019-03-20T05:05:05.090Z,102640.22
2019-03-20T05:06:11.864Z,102643.61
2019-03-20T05:07:19.004Z,102642.85
2019-03-20T05:08:26.166Z,102642.85
2019-03-20T05:09:33.134Z,102642.38
2019-03-20T05:10:40.277Z,102639.90
2019-03-20T05:11:47.401Z,102647.94
2019-03-20T05:12:54.122Z,102644.17
2019-03-20T05:14:01.221Z,102650.52
2019-03-20T05:15:09.035Z,102644.17
2019-03-20T05:16:15.815Z,102651.00
2019-03-20T05:17:22.708Z,102650.64
2019-03-20T05:18:29.856Z,102649.05
2019-03-20T05:19:37.104Z,102651.22
2019-03-20T05:20:44.836Z,102653.44
2019-03-20T05:21:54.394Z,102665.02
2019-03-20T05:23:01.158Z,102663.80
2019-03-20T05:24:07.910Z,102659.94
2019-03-20T05:25:14.741Z,102657.45
2019-03-20T05:26:21.566Z,102651.09
2019-03-20T05:27:28.575Z,102653.22
2019-03-20T05:28:35.695Z,102659.15
2019-03-20T05:29:42.402Z,102662.06
2019-03-20T05:30:49.399Z,102663.33
2019-03-20T05:31:56.151Z,102659.09
2019-03-20T05:33:02.967Z,102660.00
2019-03-20T05:34:10.472Z,102662.54
2019-03-20T05:35:17.777Z,102658.41
2019-03-20T05:36:24.754Z,102652.58
2019-03-20T05:37:31.835Z,102651.89
2019-03-20T05:38:39.027Z,102660.45
2019-03-20T05:39:46.104Z,102654.20
2019-03-20T05:40:53.256Z,102657.27
2019-03-20T05:42:00.164Z,102651.35
2019-03-20T05:43:06.951Z,102653.55
2019-03-20T05:44:13.674Z,102654.88
2019-03-20T05:45:20.617Z,102659.64
2019-03-20T05:46:27.386Z,102656.78
2019-03-20T05:47:34.507Z,102657.67
2019-03-20T05:48:41.245Z,102662.37
2019-03-20T05:49:48.316Z,102657.39
2019-03-20T05:50:55.090Z,102663.05
2019-03-20T05:52:01.879Z,102655.47
2019-03-20T05:53:09.156Z,102659.42
2019-03-20T05:54:15.834Z,102656.04
2019-03-20T05:55:22.549Z,102654.38
2019-03-20T05:56:29.337Z,102659.14
2019-03-20T05:57:36.048Z,102661.26
2019-03-20T05:58:42.904Z,102662.11
2019-03-20T05:59:49.630Z,102661.26
2019-03-20T06:00:56.418Z,102655.42
2019-03-20T06:02:03.165Z,102656.38
2019-03-20T06:03:10.048Z,102662.30
2019-03-20T06:04:16.939Z,102666.21
2019-03-20T06:05:23.690Z,102667.23
2019-03-20T06:06:30.647Z,102671.14
2019-03-20T06:07:37.404Z,102679.42
2019-03-20T06:08:44.180Z,102676.27
2019-03-20T06:09:50.940Z,102684.08
2019-03-20T06:10:57.760Z,102681.69
2019-03-20T06:12:04.477Z,102680.31
2019-03-20T06:13:11.713Z,102686.67
2019-03-20T06:14:19.137Z,102678.99
2019-03-20T06:15:25.902Z,102686.67
2019-03-20T06:16:32.622Z,102683.58
2019-03-20T06:17:39.449Z,102680.66
2019-03-20T06:18:46.564Z,102683.20
2019-03-20T06:19:53.325Z,102682.02
2019-03-20T06:21:00.428Z,102681.16
2019-03-20T06:22:07.258Z,102684.14
2019-03-20T06:23:14.368Z,102676.03
2019-03-20T06:24:21.164Z,102682.86
2019-03-20T06:25:28.309Z,102681.58
2019-03-20T06:26:35.479Z,102683.33
2019-03-20T06:27:42.988Z,102688.04
2019-03-20T06:28:49.757Z,102694.82
2019-03-20T06:29:56.946Z,102695.30
2019-03-20T06:31:03.660Z,102688.94
2019-03-20T06:32:10.358Z,102690.30
2019-03-20T06:33:17.158Z,102695.91
2019-03-20T06:34:23.996Z,102689.06
2019-03-20T06:35:30.758Z,102690.81
2019-03-20T06:36:37.696Z,102698.02
2019-03-20T06:37:45.168Z,102698.91
2019-03-20T06:38:52.284Z,102698.11
2019-03-20T06:39:59.584Z,102695.19
2019-03-20T06:41:07.089Z,102697.41
2019-03-20T06:42:13.793Z,102696.68
2019-03-20T06:43:20.572Z,102695.42
2019-03-20T06:44:27.423Z,102692.95
2019-03-20T06:45:34.309Z,102695.63
2019-03-20T06:46:41.114Z,102699.50
2019-03-20T06:47:48.227Z,102697.84
2019-03-20T06:48:55.695Z,102700.90
2019-03-20T06:50:02.474Z,102703.15
2019-03-20T06:51:09.945Z,102699.80
2019-03-20T06:52:17.440Z,102703.70
2019-03-20T06:53:24.239Z,102705.41
2019-03-20T06:54:31.729Z,102700.82
2019-03-20T06:55:38.757Z,102699.21
2019-03-20T06:56:45.849Z,102704.86
2019-03-20T06:57:52.521Z,102702.39
2019-03-20T06:59:46.607Z,102700.73
2019-03-20T07:01:23.084Z,102709.69
2019-03-20T07:02:29.564Z,102711.90
2019-03-20T07:04:05.272Z,102714.10
2019-03-20T07:06:16.921Z,102717.08
2019-03-20T07:07:43.928Z,102723.02
2019-03-20T07:08:56.661Z,102719.66
2019-03-20T07:11:08.621Z,102722.25
2019-03-20T07:12:15.771Z,102722.33
2019-03-20T07:13:23.112Z,102718.55
2019-03-20T07:14:30.245Z,102721.60
2019-03-20T07:15:37.396Z,102729.80
2019-03-20T07:16:44.153Z,102728.95
2019-03-20T07:17:51.238Z,102732.38
2019-03-20T07:18:58.443Z,102736.66
2019-03-20T07:20:06.280Z,102733.31
2019-03-20T07:21:13.416Z,102734.63
2019-03-20T07:22:20.380Z,102740.69
2019-03-20T07:23:27.153Z,102736.48
2019-03-20T07:24:34.101Z,102736.09
2019-03-20T07:25:41.375Z,102732.70
2019-03-20T07:26:48.402Z,102733.62
2019-03-20T07:27:55.527Z,102727.77
2019-03-20T07:29:02.523Z,102732.91
2019-03-20T07:30:11.273Z,102732.20
2019-03-20T07:31:18.498Z,102738.27
2019-03-20T07:32:25.567Z,102734.48
2019-03-20T07:33:32.481Z,102734.91
2019-03-20T07:34:39.279Z,102743.09
2019-03-20T07:35:46.277Z,102741.31
2019-03-20T07:36:53.135Z,102742.16
2019-03-20T07:38:00.499Z,102743.83
2019-03-20T07:39:10.425Z,102739.23
2019-03-20T07:40:17.501Z,102741.43
2019-03-20T07:41:24.242Z,102746.49
2019-03-20T07:42:31.378Z,102743.55
2019-03-20T07:43:38.772Z,102746.22
2019-03-20T07:44:45.473Z,102741.58
2019-03-20T07:45:52.382Z,102745.44
2019-03-20T07:46:59.183Z,102745.48
2019-03-20T07:48:05.912Z,102748.60
2019-03-20T07:49:13.022Z,102750.27
2019-03-20T07:50:20.069Z,102761.89
2019-03-20T07:51:26.849Z,102748.33
2019-03-20T07:52:33.609Z,102755.16
2019-03-20T07:53:41.244Z,102755.63
2019-03-20T07:54:48.000Z,102754.03
2019-03-20T07:55:54.828Z,102754.52
2019-03-20T07:57:01.642Z,102758.81
2019-03-20T07:58:08.346Z,102755.52
2019-03-20T07:59:15.102Z,102763.63
2019-03-20T08:00:22.369Z,102760.37
2019-03-20T08:01:29.153Z,102761.64
2019-03-20T08:02:36.616Z,102762.92
2019-03-20T08:03:43.341Z,102760.05
2019-03-20T08:04:50.541Z,102759.27
2019-03-20T08:05:57.603Z,102761.85
2019-03-20T08:07:04.413Z,102758.48
2019-03-20T08:08:11.371Z,102762.20
2019-03-20T08:09:18.172Z,102758.91
2019-03-20T08:10:24.941Z,102755.97
2019-03-20T08:11:31.687Z,102759.72
2019-03-20T08:12:38.446Z,102758.05
2019-03-20T08:13:45.644Z,102766.17
2019-03-20T08:14:52.482Z,102757.66
2019-03-20T08:15:59.370Z,102765.28
2019-03-20T08:17:06.670Z,102764.57
2019-03-20T08:18:13.788Z,102764.57
2019-03-20T08:19:20.512Z,102764.53
2019-03-20T08:20:27.961Z,102769.61
2019-03-20T08:21:35.287Z,102770.03
2019-03-20T08:22:42.406Z,102769.61
2019-03-20T08:23:49.032Z,102764.86
2019-03-20T08:24:56.192Z,102768.27
2019-03-20T08:26:03.439Z,102769.11
2019-03-20T08:27:10.572Z,102773.01
2019-03-20T08:28:17.692Z,102767.05
2019-03-20T08:29:24.495Z,102762.88
2019-03-20T08:30:31.615Z,102764.20
2019-03-20T08:31:38.815Z,102765.48
2019-03-20T08:32:45.994Z,102770.17
2019-03-20T08:33:53.476Z,102765.48
2019-03-20T08:35:00.469Z,102770.23
2019-03-20T08:36:07.612Z,102772.98
2019-03-20T08:37:14.553Z,102771.34
2019-03-20T08:38:21.805Z,102773.14
2019-03-20T08:39:29.359Z,102774.97
2019-03-20T08:40:36.536Z,102778.67
2019-03-20T08:41:43.260Z,102775.83
2019-03-20T08:42:51.478Z,102784.06
2019-03-20T08:43:59.479Z,102780.50
2019-03-20T08:45:07.340Z,102777.55
2019-03-20T08:46:14.466Z,102777.10
2019-03-20T08:47:21.876Z,102780.47
2019-03-20T08:48:28.807Z,102784.49
2019-03-20T08:49:35.616Z,102780.36
2019-03-20T08:50:43.416Z,102781.72
2019-03-20T08:51:50.573Z,102788.20
2019-03-20T08:52:57.732Z,102786.19
2019-03-20T08:54:06.164Z,102783.30
2019-03-20T08:55:13.982Z,102785.91
2019-03-20T08:56:20.811Z,102783.27
2019-03-20T08:57:27.714Z,102790.91
2019-03-20T08:58:34.620Z,102790.59
2019-03-20T08:59:41.372Z,102792.08
2019-03-20T09:00:48.495Z,102793.48
2019-03-20T09:01:55.636Z,102792.73
2019-03-20T09:03:02.709Z,102795.32
2019-03-20T09:04:09.472Z,102793.91
2019-03-20T09:05:16.416Z,102799.51
2019-03-20T09:06:23.166Z,102795.53
2019-03-20T09:07:30.457Z,102795.64
2019-03-20T09:08:37.191Z,102795.84
2019-03-20T09:09:44.293Z,102799.31
2019-03-20T09:10:51.070Z,102798.02
2019-03-20T09:11:58.246Z,102798.36
2019-03-20T09:13:05.150Z,102804.73
2019-03-20T09:14:11.918Z,102801.32
2019-03-20T09:15:18.750Z,102811.30
2019-03-20T09:16:25.521Z,102805.82
2019-03-20T09:17:32.666Z,102810.63
2019-03-20T09:18:39.859Z,102813.37
2019-03-20T09:19:46.932Z,102810.25
2019-03-20T09:20:53.702Z,102814.64
2019-03-20T09:22:00.525Z,102817.23
2019-03-20T09:23:07.581Z,102817.67
2019-03-20T09:24:14.511Z,102815.62
2019-03-20T09:25:21.528Z,102821.63
2019-03-20T09:26:28.296Z,102817.75
2019-03-20T09:27:35.052Z,102814.31
2019-03-20T09:28:42.133Z,102817.38
2019-03-20T09:29:48.792Z,102821.84
2019-03-20T09:30:55.699Z,102814.56
2019-03-20T09:32:02.486Z,102812.94
2019-03-20T09:33:09.290Z,102819.80
2019-03-20T09:34:16.082Z,102819.33
2019-03-20T09:35:23.022Z,102825.78
2019-03-20T09:36:29.784Z,102824.02
2019-03-20T09:37:36.828Z,102828.77
2019-03-20T09:38:43.965Z,102830.55
2019-03-20T09:39:51.158Z,102825.83
2019-03-20T09:40:58.101Z,102824.15
2019-03-20T09:42:05.175Z,102821.98
2019-03-20T09:43:12.206Z,102825.00
2019-03-20T09:44:18.975Z,102824.05
2019-03-20T09:45:26.039Z,102821.59
2019-03-20T09:46:32.982Z,102813.89
2019-03-20T09:47:39.700Z,102808.75
2019-03-20T09:48:46.474Z,102807.47
2019-03-20T09:49:53.658Z,102806.27
2019-03-20T09:51:00.613Z,102810.17
2019-03-20T09:52:07.366Z,102805.90
2019-03-20T09:53:14.772Z,102810.23
2019-03-20T09:54:21.808Z,102808.56
2019-03-20T09:55:47.862Z,102806.49
2019-03-20T09:56:54.660Z,102811.70
2019-03-20T09:58:11.104Z,102805.77
2019-03-20T09:59:10.194Z,102801.20
2019-03-20T10:00:20.356Z,102806.39
2019-03-20T10:01:27.227Z,102806.77
2019-03-20T10:02:34.541Z,102805.94
2019-03-20T10:03:41.299Z,102808.84
2019-03-20T10:04:48.417Z,102806.30
2019-03-20T10:05:55.593Z,102813.14
2019-03-20T10:07:02.426Z,102810.75
2019-03-20T10:08:09.626Z,102802.75
2019-03-20T10:09:16.617Z,102807.47
2019-03-20T10:10:23.873Z,102813.39
2019-03-20T10:11:31.091Z,102815.92
2019-03-20T10:12:38.567Z,102815.13
2019-03-20T10:13:45.378Z,102812.63
2019-03-20T10:14:52.503Z,102815.70
2019-03-20T10:15:59.717Z,102817.07
2019-03-20T10:17:07.207Z,102819.18
2019-03-20T10:18:14.657Z,102822.28
2019-03-20T10:19:21.443Z,102826.58
2019-03-20T10:20:28.378Z,102826.19
2019-03-20T10:21:35.115Z,102825.76
2019-03-20T10:22:41.886Z,102828.67
2019-03-20T10:23:48.684Z,102828.27
2019-03-20T10:24:55.783Z,102822.24
2019-03-20T10:26:02.881Z,102824.48
2019-03-20T10:27:09.563Z,102824.97
2019-03-20T10:28:16.631Z,102825.86
2019-03-20T10:29:24.480Z,102826.60
2019-03-20T10:30:31.487Z,102826.53
2019-03-20T10:31:38.573Z,102825.17
2019-03-20T10:32:45.654Z,102827.37
2019-03-20T10:33:52.878Z,102829.52
2019-03-20T10:35:00.374Z,102827.82
2019-03-20T10:36:07.542Z,102827.45
2019-03-20T10:37:14.651Z,102826.17
2019-03-20T10:38:21.433Z,102826.58
2019-03-20T10:39:28.883Z,102825.64
2019-03-20T10:40:35.713Z,102828.23
2019-03-20T10:41:42.459Z,102833.03
2019-03-20T10:42:49.298Z,102828.75
2019-03-20T10:43:56.143Z,102832.99
2019-03-20T10:45:03.247Z,102839.38
2019-03-20T10:46:09.976Z,102841.94
2019-03-20T10:47:17.049Z,102835.98
2019-03-20T10:48:24.047Z,102838.95
2019-03-20T10:49:31.148Z,102834.72
2019-03-20T10:50:37.957Z,102838.98
2019-03-20T10:51:47.160Z,102839.83
2019-03-20T10:52:54.005Z,102846.63
2019-03-20T10:54:01.866Z,102841.89
2019-03-20T10:55:09.682Z,102850.81
2019-03-20T10:56:18.753Z,102848.70
2019-03-20T10:57:25.644Z,102852.63
2019-03-20T10:58:32.587Z,102856.52
2019-03-20T10:59:39.579Z,102852.70
2019-03-20T11:00:46.739Z,102850.55
2019-03-20T11:01:53.822Z,102854.77
2019-03-20T11:03:00.860Z,102853.91
2019-03-20T11:04:07.711Z,102853.49
2019-03-20T11:05:15.167Z,102852.23
2019-03-20T11:06:22.245Z,102857.81
2019-03-20T11:07:29.465Z,102858.63
2019-03-20T11:08:37.024Z,102860.34
2019-03-20T11:09:44.149Z,102867.06
2019-03-20T11:10:50.989Z,102862.75
2019-03-20T11:11:57.755Z,102864.05
2019-03-20T11:13:05.017Z,102863.69
2019-03-20T11:14:12.479Z,102865.38
2019-03-20T11:15:19.674Z,102865.37
2019-03-20T11:16:27.173Z,102872.16
2019-03-20T11:17:33.999Z,102869.20
2019-03-20T11:18:41.110Z,102871.78
2019-03-20T11:19:48.516Z,102872.68
2019-03-20T11:20:56.137Z,102873.08
2019-03-20T11:22:03.490Z,102870.01
2019-03-20T11:23:11.023Z,102874.60
2019-03-20T11:24:18.312Z,102872.16
2019-03-20T11:25:26.292Z,102873.39
2019-03-20T11:26:33.623Z,102874.73
2019-03-20T11:27:40.773Z,102879.45
2019-03-20T11:28:49.423Z,102878.98
2019-03-20T11:29:57.366Z,102876.89
2019-03-20T11:31:04.377Z,102877.28
2019-03-20T11:32:14.179Z,102876.84
2019-03-20T11:33:19.766Z,102872.64
2019-03-20T11:34:28.205Z,102874.79
2019-03-20T11:35:35.366Z,102878.13
2019-03-20T11:36:42.681Z,102872.64
2019-03-20T11:37:49.906Z,102877.33
2019-03-20T11:38:56.988Z,102876.96
2019-03-20T11:40:03.669Z,102875.23
2019-03-20T11:41:10.374Z,102879.89
2019-03-20T11:42:17.430Z,102878.61
2019-03-20T11:43:24.139Z,102874.37
2019-03-20T11:44:30.899Z,102874.83
2019-03-20T11:45:37.574Z,102873.56
2019-03-20T11:46:44.598Z,102878.69
2019-03-20T11:47:51.974Z,102886.44
2019-03-20T11:48:58.698Z,102885.22
2019-03-20T11:50:08.447Z,102879.23
2019-03-20T11:51:15.474Z,102883.96
2019-03-20T11:52:22.143Z,102881.44
2019-03-20T11:53:29.414Z,102885.22
2019-03-20T11:54:36.083Z,102887.37
2019-03-20T11:55:44.459Z,102891.17
2019-03-20T11:56:51.144Z,102888.15
2019-03-20T11:57:57.897Z,102891.13
2019-03-20T11:59:04.707Z,102888.94
2019-03-20T12:00:14.897Z,102893.65
2019-03-20T12:01:22.526Z,102890.63
2019-03-20T12:02:29.345Z,102890.69
2019-03-20T12:03:35.994Z,102887.30
2019-03-20T12:04:42.668Z,102884.67
2019-03-20T12:05:49.391Z,102886.84
2019-03-20T12:06:56.251Z,102889.81
2019-03-20T12:08:03.105Z,102887.63
2019-03-20T12:09:11.387Z,102882.16
2019-03-20T12:10:20.861Z,102886.45
2019-03-20T12:11:27.592Z,102887.28
2019-03-20T12:12:34.261Z,102884.80
2019-03-20T12:13:41.645Z,102892.45
2019-03-20T12:14:48.351Z,102888.65
2019-03-20T12:15:55.408Z,102894.55
2019-03-20T12:17:02.125Z,102886.89
2019-03-20T12:18:08.783Z,102889.87
2019-03-20T12:19:15.971Z,102891.20
2019-03-20T12:20:23.143Z,102888.17
2019-03-20T12:21:30.185Z,102883.03
2019-03-20T12:22:37.242Z,102881.77
2019-03-20T12:23:44.111Z,102887.73
2019-03-20T12:24:51.284Z,102887.34
2019-03-20T12:25:58.544Z,102880.16
2019-03-20T12:27:14.671Z,102881.44
2019-03-20T12:28:13.740Z,102884.33
2019-03-20T12:29:22.324Z,102883.09
2019-03-20T12:30:30.751Z,102883.50
2019-03-20T12:31:37.665Z,102887.75
2019-03-20T12:32:45.471Z,102883.51
2019-03-20T12:33:55.109Z,102884.72
2019-03-20T12:35:02.381Z,102883.46
2019-03-20T12:36:09.891Z,102877.52
2019-03-20T12:37:17.072Z,102874.12
2019-03-20T12:38:24.013Z,102878.77
2019-03-20T12:39:31.102Z,102882.25
2019-03-20T12:40:37.923Z,102878.42
2019-03-20T12:41:44.996Z,102881.83
2019-03-20T12:42:52.126Z,102882.74
2019-03-20T12:43:59.293Z,102881.42
2019-03-20T12:45:10.003Z,102881.01
2019-03-20T12:46:17.193Z,102882.29
2019-03-20T12:47:24.323Z,102876.30
2019-03-20T12:48:31.445Z,102886.17
2019-03-20T12:49:38.338Z,102886.58
2019-03-20T12:50:45.515Z,102885.77